sensor_id;sensor_type;location;lat;lon;timestamp;pressure;altitude;pressure_sealevel;temperature;humidity
26823;BME280;14852;51.910;8.878;2022-12-29T00:00:07;98515.09;;;12.83;61.66
26823;BME280;14852;51.910;8.878;2022-12-29T00:02:40;98518.53;;;12.84;61.38
26823;BME280;14852;51.910;8.878;2022-12-29T00:05:06;98502.91;;;12.84;61.53
26823;BME280;14852;51.910;8.878;2022-12-29T00:07:32;98505.38;;;12.85;61.34
26823;BME280;14852;51.910;8.878;2022-12-29T00:09:58;98502.78;;;12.85;61.71
26823;BME280;14852;51.910;8.878;2022-12-29T00:12:24;98512.38;;;12.85;61.50
26823;BME280;14852;51.910;8.878;2022-12-29T00:14:50;98505.38;;;12.85;61.66
26823;BME280;14852;51.910;8.878;2022-12-29T00:17:34;98512.25;;;12.86;61.75
26823;BME280;14852;51.910;8.878;2022-12-29T00:20:00;98512.25;;;12.86;61.75
26823;BME280;14852;51.910;8.878;2022-12-29T00:22:44;98520.78;;;12.88;61.69
26823;BME280;14852;51.910;8.878;2022-12-29T00:25:28;98521.50;;;12.90;61.61
26823;BME280;14852;51.910;8.878;2022-12-29T00:28:12;98523.16;;;12.91;61.78
26823;BME280;14852;51.910;8.878;2022-12-29T00:31:00;98504.91;;;12.91;61.87
26823;BME280;14852;51.910;8.878;2022-12-29T00:33:45;98491.03;;;12.91;61.77
26823;BME280;14852;51.910;8.878;2022-12-29T00:36:36;98488.28;;;12.92;62.02
26823;BME280;14852;51.910;8.878;2022-12-29T00:39:10;98493.66;;;12.91;61.74
26823;BME280;14852;51.910;8.878;2022-12-29T00:41:56;98471.97;;;12.90;61.63
26823;BME280;14852;51.910;8.878;2022-12-29T00:44:41;98477.06;;;12.92;61.60
26823;BME280;14852;51.910;8.878;2022-12-29T00:47:08;98480.59;;;12.91;61.85
26823;BME280;14852;51.910;8.878;2022-12-29T00:49:34;98476.06;;;12.93;62.17
26823;BME280;14852;51.910;8.878;2022-12-29T00:52:09;98470.72;;;12.94;61.86
26823;BME280;14852;51.910;8.878;2022-12-29T00:54:38;98480.91;;;12.97;61.90
26823;BME280;14852;51.910;8.878;2022-12-29T00:57:07;98465.16;;;12.99;61.81
26823;BME280;14852;51.910;8.878;2022-12-29T00:59:39;98464.09;;;13.01;61.76
26823;BME280;14852;51.910;8.878;2022-12-29T01:02:05;98473.56;;;13.02;61.71
26823;BME280;14852;51.910;8.878;2022-12-29T01:04:32;98459.28;;;13.06;61.56
26823;BME280;14852;51.910;8.878;2022-12-29T01:06:58;98462.72;;;13.07;61.81
26823;BME280;14852;51.910;8.878;2022-12-29T01:09:24;98462.47;;;13.10;61.68
26823;BME280;14852;51.910;8.878;2022-12-29T01:12:09;98456.31;;;13.11;61.54
26823;BME280;14852;51.910;8.878;2022-12-29T01:14:36;98455.47;;;13.11;61.99
26823;BME280;14852;51.910;8.878;2022-12-29T01:17:03;98457.03;;;13.13;62.01
26823;BME280;14852;51.910;8.878;2022-12-29T01:19:28;98452.25;;;13.18;61.92
26823;BME280;14852;51.910;8.878;2022-12-29T01:21:55;98449.53;;;13.20;61.65
26823;BME280;14852;51.910;8.878;2022-12-29T01:24:21;98446.66;;;13.23;61.40
26823;BME280;14852;51.910;8.878;2022-12-29T01:26:47;98440.38;;;13.25;61.76
26823;BME280;14852;51.910;8.878;2022-12-29T01:29:16;98425.56;;;13.26;61.61
26823;BME280;14852;51.910;8.878;2022-12-29T01:31:44;98429.38;;;13.22;61.76
26823;BME280;14852;51.910;8.878;2022-12-29T01:34:10;98437.31;;;13.20;62.00
26823;BME280;14852;51.910;8.878;2022-12-29T01:36:37;98426.50;;;13.25;61.98
26823;BME280;14852;51.910;8.878;2022-12-29T01:39:03;98426.38;;;13.26;61.68
26823;BME280;14852;51.910;8.878;2022-12-29T01:41:29;98416.75;;;13.27;61.75
26823;BME280;14852;51.910;8.878;2022-12-29T01:43:58;98416.75;;;13.27;61.60
26823;BME280;14852;51.910;8.878;2022-12-29T01:46:39;98420.19;;;13.27;61.90
26823;BME280;14852;51.910;8.878;2022-12-29T01:49:24;98418.69;;;13.25;61.95
26823;BME280;14852;51.910;8.878;2022-12-29T01:51:59;98401.38;;;13.24;62.00
26823;BME280;14852;51.910;8.878;2022-12-29T01:54:35;98397.81;;;13.25;61.84
26823;BME280;14852;51.910;8.878;2022-12-29T01:57:08;98401.25;;;13.25;61.88
26823;BME280;14852;51.910;8.878;2022-12-29T01:59:46;98396.72;;;13.27;62.17
26823;BME280;14852;51.910;8.878;2022-12-29T02:02:16;98409.75;;;13.27;62.08
26823;BME280;14852;51.910;8.878;2022-12-29T02:04:43;98400.84;;;13.30;61.96
26823;BME280;14852;51.910;8.878;2022-12-29T02:07:19;98387.41;;;13.34;61.69
26823;BME280;14852;51.910;8.878;2022-12-29T02:09:49;98387.41;;;13.34;61.95
26823;BME280;14852;51.910;8.878;2022-12-29T02:12:19;98398.81;;;13.33;62.01
26823;BME280;14852;51.910;8.878;2022-12-29T02:14:46;98402.25;;;13.34;62.00
26823;BME280;14852;51.910;8.878;2022-12-29T02:17:41;98393.75;;;13.41;62.14
26823;BME280;14852;51.910;8.878;2022-12-29T02:20:50;98389.94;;;13.46;61.87
26823;BME280;14852;51.910;8.878;2022-12-29T02:23:50;98390.34;;;13.51;61.47
26823;BME280;14852;51.910;8.878;2022-12-29T02:26:29;98392.13;;;13.50;62.27
26823;BME280;14852;51.910;8.878;2022-12-29T02:29:15;98395.19;;;13.55;61.50
26823;BME280;14852;51.910;8.878;2022-12-29T02:32:00;98397.66;;;13.57;61.97
26823;BME280;14852;51.910;8.878;2022-12-29T02:43:48;98379.41;;;13.66;61.49
26823;BME280;14852;51.910;8.878;2022-12-29T02:46:35;98382.84;;;13.67;61.44
26823;BME280;14852;51.910;8.878;2022-12-29T02:52:05;98384.38;;;13.69;61.59
26823;BME280;14852;51.910;8.878;2022-12-29T02:54:33;98380.13;;;13.68;61.92
26823;BME280;14852;51.910;8.878;2022-12-29T03:00:15;98384.06;;;13.63;61.82
26823;BME280;14852;51.910;8.878;2022-12-29T03:03:10;98365.53;;;13.56;62.01
26823;BME280;14852;51.910;8.878;2022-12-29T03:06:01;98376.22;;;13.53;61.82
26823;BME280;14852;51.910;8.878;2022-12-29T03:11:30;98363.88;;;13.55;62.00
26823;BME280;14852;51.910;8.878;2022-12-29T03:14:32;98345.59;;;13.55;61.97
26823;BME280;14852;51.910;8.878;2022-12-29T03:20:09;98335.16;;;13.55;61.98
26823;BME280;14852;51.910;8.878;2022-12-29T03:22:42;98332.81;;;13.52;62.26
26823;BME280;14852;51.910;8.878;2022-12-29T03:25:21;98325.41;;;13.57;61.98
26823;BME280;14852;51.910;8.878;2022-12-29T03:28:01;98332.69;;;13.54;62.26
26823;BME280;14852;51.910;8.878;2022-12-29T03:30:33;98330.91;;;13.54;61.78
26823;BME280;14852;51.910;8.878;2022-12-29T03:33:03;98321.84;;;13.58;61.92
26823;BME280;14852;51.910;8.878;2022-12-29T03:35:36;98317.34;;;13.60;62.04
26823;BME280;14852;51.910;8.878;2022-12-29T03:38:16;98323.78;;;13.66;61.79
26823;BME280;14852;51.910;8.878;2022-12-29T03:40:49;98336.56;;;13.69;61.40
26823;BME280;14852;51.910;8.878;2022-12-29T03:43:17;98332.06;;;13.71;61.46
26823;BME280;14852;51.910;8.878;2022-12-29T03:45:44;98323.94;;;13.74;61.22
26823;BME280;14852;51.910;8.878;2022-12-29T03:48:11;98335.75;;;13.78;61.37
26823;BME280;14852;51.910;8.878;2022-12-29T03:50:40;98330.53;;;13.78;60.77
26823;BME280;14852;51.910;8.878;2022-12-29T03:53:06;98323.53;;;13.78;60.86
26823;BME280;14852;51.910;8.878;2022-12-29T03:55:32;98330.28;;;13.81;60.87
26823;BME280;14852;51.910;8.878;2022-12-29T03:57:58;98318.88;;;13.82;60.62
26823;BME280;14852;51.910;8.878;2022-12-29T04:00:38;98309.13;;;13.84;60.64
26823;BME280;14852;51.910;8.878;2022-12-29T04:03:04;98316.66;;;13.87;60.51
26823;BME280;14852;51.910;8.878;2022-12-29T04:05:30;98317.38;;;13.89;60.80
26823;BME280;14852;51.910;8.878;2022-12-29T04:07:56;98311.44;;;13.87;60.64
26823;BME280;14852;51.910;8.878;2022-12-29T04:10:25;98304.56;;;13.86;60.62
26823;BME280;14852;51.910;8.878;2022-12-29T04:12:56;98310.63;;;13.87;60.46
26823;BME280;14852;51.910;8.878;2022-12-29T04:15:22;98316.53;;;13.89;60.23
26823;BME280;14852;51.910;8.878;2022-12-29T04:17:49;98303.34;;;13.90;60.57
26823;BME280;14852;51.910;8.878;2022-12-29T04:20:16;98303.09;;;13.93;60.07
26823;BME280;14852;51.910;8.878;2022-12-29T04:23:04;98311.44;;;13.97;60.10
26823;BME280;14852;51.910;8.878;2022-12-29T04:25:32;98310.50;;;13.98;59.75
26823;BME280;14852;51.910;8.878;2022-12-29T04:27:58;98316.41;;;14.00;59.76
26823;BME280;14852;51.910;8.878;2022-12-29T04:30:44;98322.47;;;14.00;59.68
26823;BME280;14852;51.910;8.878;2022-12-29T04:33:16;98327.81;;;13.99;59.77
26823;BME280;14852;51.910;8.878;2022-12-29T04:35:43;98330.56;;;13.97;60.19
26823;BME280;14852;51.910;8.878;2022-12-29T04:38:10;98307.63;;;13.91;59.97
26823;BME280;14852;51.910;8.878;2022-12-29T04:40:39;98308.84;;;13.87;60.36
26823;BME280;14852;51.910;8.878;2022-12-29T04:43:06;98309.25;;;13.83;60.54
26823;BME280;14852;51.910;8.878;2022-12-29T04:45:37;98310.34;;;13.80;60.15
26823;BME280;14852;51.910;8.878;2022-12-29T04:48:10;98304.31;;;13.80;60.27
26823;BME280;14852;51.910;8.878;2022-12-29T04:50:43;98298.53;;;13.76;60.48
26823;BME280;14852;51.910;8.878;2022-12-29T04:53:16;98313.22;;;13.77;60.40
26823;BME280;14852;51.910;8.878;2022-12-29T04:55:43;98301.25;;;13.74;60.45
26823;BME280;14852;51.910;8.878;2022-12-29T04:58:09;98289.03;;;13.75;60.40
26823;BME280;14852;51.910;8.878;2022-12-29T05:00:35;98284.66;;;13.75;60.21
26823;BME280;14852;51.910;8.878;2022-12-29T05:03:01;98299.34;;;13.76;60.32
26823;BME280;14852;51.910;8.878;2022-12-29T05:05:28;98296.72;;;13.76;60.44
26823;BME280;14852;51.910;8.878;2022-12-29T05:07:54;98292.47;;;13.75;60.51
26823;BME280;14852;51.910;8.878;2022-12-29T05:10:20;98298.25;;;13.79;60.33
26823;BME280;14852;51.910;8.878;2022-12-29T05:12:48;98298.94;;;13.81;60.19
26823;BME280;14852;51.910;8.878;2022-12-29T05:15:14;98302.38;;;13.82;60.30
26823;BME280;14852;51.910;8.878;2022-12-29T05:17:42;98291.13;;;13.81;60.18
26823;BME280;14852;51.910;8.878;2022-12-29T05:20:09;98301.56;;;13.81;60.54
26823;BME280;14852;51.910;8.878;2022-12-29T05:22:35;98289.72;;;13.77;60.67
26823;BME280;14852;51.910;8.878;2022-12-29T05:25:02;98294.81;;;13.78;60.65
26823;BME280;14852;51.910;8.878;2022-12-29T05:27:29;98289.34;;;13.82;60.53
26823;BME280;14852;51.910;8.878;2022-12-29T05:30:13;98282.47;;;13.81;59.98
26823;BME280;14852;51.910;8.878;2022-12-29T05:32:40;98286.03;;;13.80;60.50
26823;BME280;14852;51.910;8.878;2022-12-29T05:35:07;98279.97;;;13.79;60.65
26823;BME280;14852;51.910;8.878;2022-12-29T05:37:33;98284.25;;;13.80;60.33
26823;BME280;14852;51.910;8.878;2022-12-29T05:39:59;98283.97;;;13.83;60.72
26823;BME280;14852;51.910;8.878;2022-12-29T05:42:25;98273.53;;;13.83;60.60
26823;BME280;14852;51.910;8.878;2022-12-29T05:45:07;98278.47;;;13.86;60.65
26823;BME280;14852;51.910;8.878;2022-12-29T05:47:52;98268.03;;;13.86;60.64
26823;BME280;14852;51.910;8.878;2022-12-29T05:50:29;98279.84;;;13.90;60.50
26823;BME280;14852;51.910;8.878;2022-12-29T05:53:07;98266.53;;;13.93;60.42
26823;BME280;14852;51.910;8.878;2022-12-29T05:55:34;98285.50;;;13.95;60.48
26823;BME280;14852;51.910;8.878;2022-12-29T05:58:00;98271.63;;;13.95;60.56
26823;BME280;14852;51.910;8.878;2022-12-29T06:00:27;98268.03;;;13.96;60.28
26823;BME280;14852;51.910;8.878;2022-12-29T06:02:52;98265.28;;;13.97;60.51
26823;BME280;14852;51.910;8.878;2022-12-29T06:05:18;98274.63;;;14.00;60.50
26823;BME280;14852;51.910;8.878;2022-12-29T06:07:45;98272.84;;;14.00;60.15
26823;BME280;14852;51.910;8.878;2022-12-29T06:10:12;98268.44;;;14.01;60.14
26823;BME280;14852;51.910;8.878;2022-12-29T06:12:44;98280.53;;;14.02;60.15
26823;BME280;14852;51.910;8.878;2022-12-29T06:15:10;98278.75;;;14.02;59.91
26823;BME280;14852;51.910;8.878;2022-12-29T06:17:39;98277.78;;;14.03;60.15
26823;BME280;14852;51.910;8.878;2022-12-29T06:20:06;98282.75;;;14.06;60.39
26823;BME280;14852;51.910;8.878;2022-12-29T06:22:32;98260.06;;;14.07;60.10
26823;BME280;14852;51.910;8.878;2022-12-29T06:24:57;98267.59;;;14.10;59.89
26823;BME280;14852;51.910;8.878;2022-12-29T06:27:24;98278.75;;;14.12;59.67
26823;BME280;14852;51.910;8.878;2022-12-29T06:29:51;98273.66;;;14.10;59.49
26823;BME280;14852;51.910;8.878;2022-12-29T06:32:17;98277.91;;;14.11;59.96
26823;BME280;14852;51.910;8.878;2022-12-29T06:34:47;98302.94;;;14.14;59.60
26823;BME280;14852;51.910;8.878;2022-12-29T06:37:13;98302.81;;;14.16;59.75
26823;BME280;14852;51.910;8.878;2022-12-29T06:39:40;98295.94;;;14.14;59.39
26823;BME280;14852;51.910;8.878;2022-12-29T06:42:10;98302.69;;;14.17;59.40
26823;BME280;14852;51.910;8.878;2022-12-29T06:44:54;98304.47;;;14.17;58.92
26823;BME280;14852;51.910;8.878;2022-12-29T06:47:23;98298.41;;;14.16;59.21
26823;BME280;14852;51.910;8.878;2022-12-29T06:49:48;98298.94;;;14.20;59.07
26823;BME280;14852;51.910;8.878;2022-12-29T06:52:14;98297.16;;;14.20;59.01
26823;BME280;14852;51.910;8.878;2022-12-29T06:54:40;98294.72;;;14.19;59.21
26823;BME280;14852;51.910;8.878;2022-12-29T06:57:05;98300.34;;;14.14;58.87
26823;BME280;14852;51.910;8.878;2022-12-29T06:59:31;98318.75;;;14.12;59.49
26823;BME280;14852;51.910;8.878;2022-12-29T07:01:57;98314.63;;;14.10;59.16
26823;BME280;14852;51.910;8.878;2022-12-29T07:04:23;98317.38;;;14.08;59.31
26823;BME280;14852;51.910;8.878;2022-12-29T07:06:49;98314.09;;;14.06;59.48
26823;BME280;14852;51.910;8.878;2022-12-29T07:09:14;98314.09;;;14.06;59.34
26823;BME280;14852;51.910;8.878;2022-12-29T07:11:40;98326.44;;;14.04;59.34
26823;BME280;14852;51.910;8.878;2022-12-29T07:14:06;98327.41;;;14.03;59.90
26823;BME280;14852;51.910;8.878;2022-12-29T07:16:32;98324.94;;;14.02;59.99
26823;BME280;14852;51.910;8.878;2022-12-29T07:18:59;98326.59;;;14.03;59.83
26823;BME280;14852;51.910;8.878;2022-12-29T07:21:25;98322.19;;;14.03;59.58
26823;BME280;14852;51.910;8.878;2022-12-29T07:23:51;98319.59;;;14.03;59.46
26823;BME280;14852;51.910;8.878;2022-12-29T07:26:16;98315.06;;;14.05;59.54
26823;BME280;14852;51.910;8.878;2022-12-29T07:28:44;98315.88;;;14.06;59.69
26823;BME280;14852;51.910;8.878;2022-12-29T07:31:19;98320.97;;;14.07;59.53
26823;BME280;14852;51.910;8.878;2022-12-29T07:33:45;98315.88;;;14.06;59.07
26823;BME280;14852;51.910;8.878;2022-12-29T07:36:12;98318.50;;;14.06;59.04
26823;BME280;14852;51.910;8.878;2022-12-29T07:38:38;98315.75;;;14.07;59.19
26823;BME280;14852;51.910;8.878;2022-12-29T07:41:04;98321.75;;;14.08;59.05
26823;BME280;14852;51.910;8.878;2022-12-29T07:43:30;98330.97;;;14.12;59.05
26823;BME280;14852;51.910;8.878;2022-12-29T07:46:31;98337.59;;;14.16;59.12
26823;BME280;14852;51.910;8.878;2022-12-29T07:48:57;98335.25;;;14.13;59.06
26823;BME280;14852;51.910;8.878;2022-12-29T07:51:23;98360.53;;;14.12;59.07
26823;BME280;14852;51.910;8.878;2022-12-29T07:53:49;98358.88;;;14.11;58.95
26823;BME280;14852;51.910;8.878;2022-12-29T07:56:14;98372.91;;;14.10;59.06
26823;BME280;14852;51.910;8.878;2022-12-29T07:58:41;98374.69;;;14.10;59.00
26823;BME280;14852;51.910;8.878;2022-12-29T08:01:07;98379.09;;;14.09;59.24
26823;BME280;14852;51.910;8.878;2022-12-29T08:03:33;98371.53;;;14.06;59.06
26823;BME280;14852;51.910;8.878;2022-12-29T08:05:59;98387.47;;;14.03;59.30
26823;BME280;14852;51.910;8.878;2022-12-29T08:08:25;98382.38;;;14.02;59.38
26823;BME280;14852;51.910;8.878;2022-12-29T08:10:50;98393.91;;;13.99;59.20
26823;BME280;14852;51.910;8.878;2022-12-29T08:13:16;98380.34;;;13.96;58.88
26823;BME280;14852;51.910;8.878;2022-12-29T08:15:42;98402.03;;;13.96;59.21
26823;BME280;14852;51.910;8.878;2022-12-29T08:18:08;98400.66;;;13.92;59.33
26823;BME280;14852;51.910;8.878;2022-12-29T08:20:33;98400.78;;;13.91;59.38
26823;BME280;14852;51.910;8.878;2022-12-29T08:22:59;98399.25;;;13.88;59.33
26823;BME280;14852;51.910;8.878;2022-12-29T08:25:25;98404.75;;;13.85;59.39
26823;BME280;14852;51.910;8.878;2022-12-29T08:27:50;98410.25;;;13.82;59.28
26823;BME280;14852;51.910;8.878;2022-12-29T08:30:16;98407.06;;;13.78;59.47
26823;BME280;14852;51.910;8.878;2022-12-29T08:32:42;98411.47;;;13.78;59.80
26823;BME280;14852;51.910;8.878;2022-12-29T08:35:08;98407.06;;;13.78;59.39
26823;BME280;14852;51.910;8.878;2022-12-29T08:37:34;98416.00;;;13.76;59.52
26823;BME280;14852;51.910;8.878;2022-12-29T08:40:00;98431.78;;;13.74;59.98
26823;BME280;14852;51.910;8.878;2022-12-29T08:42:30;98427.38;;;13.75;59.86
26823;BME280;14852;51.910;8.878;2022-12-29T08:44:58;98415.88;;;13.77;59.95
26823;BME280;14852;51.910;8.878;2022-12-29T08:47:24;98424.91;;;13.73;59.69
26823;BME280;14852;51.910;8.878;2022-12-29T08:49:50;98422.28;;;13.73;59.80
26823;BME280;14852;51.910;8.878;2022-12-29T08:52:15;98429.16;;;13.74;59.48
26823;BME280;14852;51.910;8.878;2022-12-29T08:54:41;98433.84;;;13.71;59.54
26823;BME280;14852;51.910;8.878;2022-12-29T08:57:07;98427.69;;;13.72;59.92
26823;BME280;14852;51.910;8.878;2022-12-29T08:59:38;98431.13;;;13.72;59.60
26823;BME280;14852;51.910;8.878;2022-12-29T09:02:04;98431.25;;;13.71;59.72
26823;BME280;14852;51.910;8.878;2022-12-29T09:04:30;98440.72;;;13.72;59.76
26823;BME280;14852;51.910;8.878;2022-12-29T09:06:56;98426.16;;;13.69;60.26
26823;BME280;14852;51.910;8.878;2022-12-29T09:09:22;98425.44;;;13.67;60.34
26823;BME280;14852;51.910;8.878;2022-12-29T09:11:47;98437.81;;;13.65;60.16
26823;BME280;14852;51.910;8.878;2022-12-29T09:14:13;98434.22;;;13.66;60.01
26823;BME280;14852;51.910;8.878;2022-12-29T09:16:40;98435.31;;;13.64;60.07
26823;BME280;14852;51.910;8.878;2022-12-29T09:19:25;98424.59;;;13.57;60.29
26823;BME280;14852;51.910;8.878;2022-12-29T09:21:50;98430.19;;;13.53;59.98
26823;BME280;14852;51.910;8.878;2022-12-29T09:24:16;98424.44;;;13.49;60.10
26823;BME280;14852;51.910;8.878;2022-12-29T09:26:42;98433.34;;;13.47;60.11
26823;BME280;14852;51.910;8.878;2022-12-29T09:29:08;98444.72;;;13.46;59.49
26823;BME280;14852;51.910;8.878;2022-12-29T09:31:33;98454.22;;;13.47;60.00
26823;BME280;14852;51.910;8.878;2022-12-29T09:33:59;98450.78;;;13.46;59.57
26823;BME280;14852;51.910;8.878;2022-12-29T09:36:25;98460.63;;;13.43;59.49
26823;BME280;14852;51.910;8.878;2022-12-29T09:38:53;98453.63;;;13.43;59.54
26823;BME280;14852;51.910;8.878;2022-12-29T09:41:36;98462.59;;;13.50;59.51
26823;BME280;14852;51.910;8.878;2022-12-29T09:44:33;98469.22;;;13.54;59.08
26823;BME280;14852;51.910;8.878;2022-12-29T09:47:02;98473.94;;;13.60;58.96
26823;BME280;14852;51.910;8.878;2022-12-29T09:49:49;98467.66;;;13.72;58.78
26823;BME280;14852;51.910;8.878;2022-12-29T09:52:31;98462.47;;;13.82;58.78
26823;BME280;14852;51.910;8.878;2022-12-29T09:55:20;98471.00;;;13.84;58.19
26823;BME280;14852;51.910;8.878;2022-12-29T09:57:56;98462.19;;;13.85;58.59
26823;BME280;14852;51.910;8.878;2022-12-29T10:00:38;98454.91;;;13.89;58.16
26823;BME280;14852;51.910;8.878;2022-12-29T10:03:18;98457.41;;;13.90;58.27
26823;BME280;14852;51.910;8.878;2022-12-29T10:17:24;98442.84;;;13.97;57.73
26823;BME280;14852;51.910;8.878;2022-12-29T10:20:19;98458.25;;;14.00;57.67
26823;BME280;14852;51.910;8.878;2022-12-29T10:23:28;98459.22;;;13.99;57.35
26823;BME280;14852;51.910;8.878;2022-12-29T10:25:57;98475.94;;;13.87;57.38
26823;BME280;14852;51.910;8.878;2022-12-29T10:28:34;98469.34;;;13.83;57.26
26823;BME280;14852;51.910;8.878;2022-12-29T10:31:09;98479.34;;;13.78;57.33
26823;BME280;14852;51.910;8.878;2022-12-29T10:33:41;98487.44;;;13.75;57.76
26823;BME280;14852;51.910;8.878;2022-12-29T10:41:55;98482.50;;;13.72;57.28
26823;BME280;14852;51.910;8.878;2022-12-29T10:44:28;98482.75;;;13.69;57.13
26823;BME280;14852;51.910;8.878;2022-12-29T10:47:02;98490.00;;;13.65;56.97
26823;BME280;14852;51.910;8.878;2022-12-29T10:49:32;98493.84;;;13.61;57.07
26823;BME280;14852;51.910;8.878;2022-12-29T10:52:03;98478.13;;;13.52;57.00
26823;BME280;14852;51.910;8.878;2022-12-29T10:54:52;98486.66;;;13.54;57.05
26823;BME280;14852;51.910;8.878;2022-12-29T10:59:54;98490.19;;;14.82;55.87
26823;BME280;14852;51.910;8.878;2022-12-29T11:08:16;98476.72;;;15.53;54.69
26823;BME280;14852;51.910;8.878;2022-12-29T11:10:44;98471.69;;;15.23;54.81
26823;BME280;14852;51.910;8.878;2022-12-29T11:15:43;98466.38;;;14.85;55.12
26823;BME280;14852;51.910;8.878;2022-12-29T11:18:35;98456.19;;;14.73;55.05
26823;BME280;14852;51.910;8.878;2022-12-29T11:21:50;98461.28;;;14.65;54.91
26823;BME280;14852;51.910;8.878;2022-12-29T11:24:06;98455.91;;;14.57;54.90
26823;BME280;14852;51.910;8.878;2022-12-29T11:26:44;98460.28;;;14.46;54.38
26823;BME280;14852;51.910;8.878;2022-12-29T11:29:17;98456.47;;;14.41;54.58
26823;BME280;14852;51.910;8.878;2022-12-29T11:31:57;98456.94;;;14.35;53.98
26823;BME280;14852;51.910;8.878;2022-12-29T11:34:35;98465.88;;;14.32;54.50
26823;BME280;14852;51.910;8.878;2022-12-29T11:42:35;98467.53;;;14.24;53.62
26823;BME280;14852;51.910;8.878;2022-12-29T11:45:19;98458.72;;;14.25;54.20
26823;BME280;14852;51.910;8.878;2022-12-29T11:47:50;98467.97;;;14.29;54.14
26823;BME280;14852;51.910;8.878;2022-12-29T11:50:24;98461.78;;;14.30;54.09
26823;BME280;14852;51.910;8.878;2022-12-29T11:53:23;98464.78;;;14.35;54.07
26823;BME280;14852;51.910;8.878;2022-12-29T11:56:01;98467.81;;;14.30;53.88
26823;BME280;14852;51.910;8.878;2022-12-29T11:58:30;98462.88;;;14.27;54.24
26823;BME280;14852;51.910;8.878;2022-12-29T12:01:02;98481.97;;;14.28;53.98
26823;BME280;14852;51.910;8.878;2022-12-29T12:03:30;98476.31;;;14.23;53.86
26823;BME280;14852;51.910;8.878;2022-12-29T12:06:01;98480.44;;;14.16;53.78
26823;BME280;14852;51.910;8.878;2022-12-29T12:08:57;98484.69;;;14.17;54.40
26823;BME280;14852;51.910;8.878;2022-12-29T12:11:36;98489.50;;;14.11;54.04
26823;BME280;14852;51.910;8.878;2022-12-29T12:14:36;98486.19;;;14.09;53.50
26823;BME280;14852;51.910;8.878;2022-12-29T12:17:21;98490.16;;;14.04;53.49
26823;BME280;14852;51.910;8.878;2022-12-29T12:20:01;98489.34;;;14.03;53.15
26823;BME280;14852;51.910;8.878;2022-12-29T12:22:36;98486.59;;;14.05;53.32
26823;BME280;14852;51.910;8.878;2022-12-29T12:25:08;98469.97;;;14.06;53.01
26823;BME280;14852;51.910;8.878;2022-12-29T12:27:43;98489.22;;;14.05;53.18
26823;BME280;14852;51.910;8.878;2022-12-29T12:30:20;98485.75;;;14.04;53.22
26823;BME280;14852;51.910;8.878;2022-12-29T12:32:58;98491.13;;;14.03;52.81
26823;BME280;14852;51.910;8.878;2022-12-29T12:38:58;98509.66;;;14.00;52.76
26823;BME280;14852;51.910;8.878;2022-12-29T12:47:33;98507.72;;;13.92;52.99
26823;BME280;14852;51.910;8.878;2022-12-29T12:53:17;98517.00;;;13.85;52.76
26823;BME280;14852;51.910;8.878;2022-12-29T12:56:14;98517.16;;;13.84;53.10
26823;BME280;14852;51.910;8.878;2022-12-29T13:10:54;98522.03;;;13.67;52.99
26823;BME280;14852;51.910;8.878;2022-12-29T13:14:24;98529.03;;;13.67;52.87
26823;BME280;14852;51.910;8.878;2022-12-29T13:19:57;98538.88;;;13.63;52.83
26823;BME280;14852;51.910;8.878;2022-12-29T13:22:41;98555.25;;;13.65;52.80
26823;BME280;14852;51.910;8.878;2022-12-29T13:28:29;98540.66;;;13.63;53.08
26823;BME280;14852;51.910;8.878;2022-12-29T13:31:15;98535.84;;;13.58;52.78
26823;BME280;14852;51.910;8.878;2022-12-29T13:37:22;98546.28;;;13.58;52.29
26823;BME280;14852;51.910;8.878;2022-12-29T13:39:39;98554.84;;;13.60;52.50
26823;BME280;14852;51.910;8.878;2022-12-29T13:42:06;98557.44;;;13.60;52.31
26823;BME280;14852;51.910;8.878;2022-12-29T13:44:43;98567.06;;;13.60;52.88
26823;BME280;14852;51.910;8.878;2022-12-29T13:47:40;98562.50;;;13.62;52.94
26823;BME280;14852;51.910;8.878;2022-12-29T13:50:19;98568.84;;;13.59;52.79
26823;BME280;14852;51.910;8.878;2022-12-29T13:53:01;98576.78;;;13.58;52.61
26823;BME280;14852;51.910;8.878;2022-12-29T13:55:35;98579.66;;;13.55;52.72
26823;BME280;14852;51.910;8.878;2022-12-29T13:58:34;98591.75;;;13.56;52.40
26823;BME280;14852;51.910;8.878;2022-12-29T14:04:13;98608.88;;;13.49;52.27
26823;BME280;14852;51.910;8.878;2022-12-29T14:06:39;98604.84;;;13.45;52.38
26823;BME280;14852;51.910;8.878;2022-12-29T14:11:58;98610.44;;;13.40;52.90
26823;BME280;14852;51.910;8.878;2022-12-29T14:14:29;98612.22;;;13.39;52.96
26823;BME280;14852;51.910;8.878;2022-12-29T14:17:12;98614.97;;;13.38;53.19
26823;BME280;14852;51.910;8.878;2022-12-29T14:19:42;98611.78;;;13.34;52.79
26823;BME280;14852;51.910;8.878;2022-12-29T14:22:10;98609.41;;;13.31;52.81
26823;BME280;14852;51.910;8.878;2022-12-29T14:24:44;98607.75;;;13.30;53.40
26823;BME280;14852;51.910;8.878;2022-12-29T14:34:46;98621.78;;;13.18;52.96
26823;BME280;14852;51.910;8.878;2022-12-29T14:37:25;98628.78;;;13.18;53.03
26823;BME280;14852;51.910;8.878;2022-12-29T14:42:49;98641.28;;;13.14;53.35
26823;BME280;14852;51.910;8.878;2022-12-29T14:47:52;98651.69;;;13.14;52.83
26823;BME280;14852;51.910;8.878;2022-12-29T14:50:39;98663.88;;;13.14;52.91
26823;BME280;14852;51.910;8.878;2022-12-29T14:53:41;98663.28;;;13.10;53.40
26823;BME280;14852;51.910;8.878;2022-12-29T14:55:55;98669.56;;;13.07;53.12
26823;BME280;14852;51.910;8.878;2022-12-29T14:58:31;98668.50;;;13.10;53.46
26823;BME280;14852;51.910;8.878;2022-12-29T15:00:58;98658.06;;;13.10;53.45
26823;BME280;14852;51.910;8.878;2022-12-29T15:03:47;98663.16;;;13.12;53.03
26823;BME280;14852;51.910;8.878;2022-12-29T15:06:16;98666.25;;;13.05;53.32
26823;BME280;14852;51.910;8.878;2022-12-29T15:12:17;98683.56;;;13.06;53.03
26823;BME280;14852;51.910;8.878;2022-12-29T15:14:56;98681.22;;;13.03;53.56
26823;BME280;14852;51.910;8.878;2022-12-29T15:17:29;98683.00;;;13.03;53.37
26823;BME280;14852;51.910;8.878;2022-12-29T15:19:58;98689.97;;;13.02;53.18